Aérodrome :
LOGIN :

S'inscrire | Disclaimer

   EN    FR    IT 

 










Légende :    VFR   VFR Marginal   IFR   IFR Intensif   IFR Très Intensif
Visi : 
Plafond : 
>= 8 km
>= 3000ft
5 à 8 km
1000 à 3000 ft
1500m à 5 km
500 à 1000 ft
800 à 1500m
200 à 500 ft
< 800m
< 200 ft
Symboles :   Orages  Brouillard  Fortes neiges  Fortes précipitations  Vent > 20 kt
SIGMETs :   Divers  Orages  Givrage  Turbulence  Onde Orograph.  Cendres Volcan.






- Altitude de l'aérodrome : 20 ft
- Code IATA : TIV


LYTV - Tivat - Montenegro

DERNIER METAR :
  • 101030Z VRB02KT 9999 -RA FEW046 BKN060 10/09 Q1008 NOSIG

METARs EXPIRÉS :
  • 101000Z 14005KT 110V170 9999 -RA FEW046 BKN060 10/09 Q1008 NOSIG
  • 100930Z VRB02KT 9999 -RA FEW046 BKN060 11/09 Q1008 NOSIG
  • 100900Z 24004KT 200V290 9999 -RA FEW046 BKN060 11/09 Q1008 NOSIG
  • 100830Z 00000KT 9999 -RA FEW033 BKN060 10/09 Q1008 RERA TEMPO 5000 RA
  • 100800Z 10003KT 9999 RA FEW030 SCT050 BKN080 10/09 Q1008 TEMPO 5000

TAF TAF LYTV
Valide du 10 à 06h jusqu'au 11 à 06h UTC


100500Z 1006/1106 09006KT 9999 FEW030 SCT040 BKN080 TX13/1013Z TN05/1104Z
TEMPO 1006/1014 4000 RA
PROB40
TEMPO 1006/1009 VRB15G25KT 2000 TSRA FEW010 SCT027CB BKN033
BECMG 1012/1014 02015G25KT
TEMPO 1020/1106 02018G35KT



MET'MAP, la Météo Aéronautique d'un coup d'oeil ! - Copyright ORBIFLY Décembre 2007 - Disclaimer

ORBIFLY MET'MAP TEAM :

Programmation & Développement : Alexandra Zaïnal
Sur une idée originale de : Baudouin d'Aumeries
Assistance à la programmation : Marc-Olivier Méhu
Soutien technique & logistique : Manuel Goepfert

Contact : metmap@orbifly.com




SOURCES & CREDITS :

   NOAA